createdAt,value
2018-04-14T00:00:30.097Z,1008.88
2018-04-14T00:01:30.150Z,1008.87
2018-04-14T00:02:30.128Z,1008.88
2018-04-14T00:03:30.145Z,1008.88
2018-04-14T00:04:30.160Z,1008.90
2018-04-14T00:05:30.175Z,1008.90
2018-04-14T00:06:30.193Z,1008.89
2018-04-14T00:07:30.207Z,1008.88
2018-04-14T00:08:30.222Z,1008.86
2018-04-14T00:09:30.235Z,1008.87
2018-04-14T00:10:30.252Z,1008.88
2018-04-14T00:11:30.269Z,1008.82
2018-04-14T00:12:30.288Z,1008.84
2018-04-14T00:13:30.297Z,1008.85
2018-04-14T00:14:30.313Z,1008.86
2018-04-14T00:15:30.330Z,1008.89
2018-04-14T00:16:30.345Z,1008.90
2018-04-14T00:17:30.361Z,1008.89
2018-04-14T00:18:30.379Z,1008.92
2018-04-14T00:19:30.391Z,1008.91
2018-04-14T00:20:30.406Z,1008.99
2018-04-14T00:21:30.422Z,1008.96
2018-04-14T00:22:30.444Z,1008.97
2018-04-14T00:23:30.453Z,1009.00
2018-04-14T00:24:30.473Z,1009.00
2018-04-14T00:25:30.484Z,1008.98
2018-04-14T00:26:30.499Z,1008.97
2018-04-14T00:27:30.515Z,1008.94
2018-04-14T00:28:30.547Z,1008.94
2018-04-14T00:29:30.546Z,1008.98
2018-04-14T00:30:30.568Z,1008.96
2018-04-14T00:31:30.577Z,1008.95
2018-04-14T00:32:30.594Z,1008.95
2018-04-14T00:33:30.608Z,1008.93
2018-04-14T00:34:30.621Z,1008.97
2018-04-14T00:35:30.679Z,1008.99
2018-04-14T00:36:30.654Z,1008.97
2018-04-14T00:37:30.674Z,1008.99
2018-04-14T00:38:30.688Z,1008.96
2018-04-14T00:39:30.703Z,1008.98
2018-04-14T00:40:30.714Z,1008.95
2018-04-14T00:41:30.728Z,1008.94
2018-04-14T00:42:30.746Z,1008.96
2018-04-14T00:43:30.759Z,1008.97
2018-04-14T00:44:30.783Z,1008.94
2018-04-14T00:45:30.792Z,1008.93
2018-04-14T00:46:30.806Z,1008.97
2018-04-14T00:47:30.827Z,1008.95
2018-04-14T00:48:30.847Z,1008.97
2018-04-14T00:49:30.852Z,1008.97
2018-04-14T00:50:30.872Z,1009.02
2018-04-14T00:51:30.885Z,1009.01
2018-04-14T00:52:30.902Z,1009.00
2018-04-14T00:53:30.915Z,1009.04
2018-04-14T00:54:30.943Z,1009.05
2018-04-14T00:55:30.949Z,1009.01
2018-04-14T00:56:30.985Z,1009.04
2018-04-14T00:57:30.978Z,1009.08
2018-04-14T00:58:30.991Z,1009.08
2018-04-14T00:59:31.007Z,1009.09
2018-04-14T01:00:31.022Z,1009.08
2018-04-14T01:01:31.037Z,1009.09
2018-04-14T01:02:31.052Z,1009.12
2018-04-14T01:03:31.072Z,1009.09
2018-04-14T01:04:31.085Z,1009.09
2018-04-14T01:05:31.101Z,1009.07
2018-04-14T01:06:31.115Z,1009.06
2018-04-14T01:07:31.138Z,1009.10
2018-04-14T01:08:31.150Z,1009.08
2018-04-14T01:09:31.183Z,1009.10
2018-04-14T01:10:31.179Z,1009.11
2018-04-14T01:11:31.229Z,1009.16
2018-04-14T01:12:31.217Z,1009.15
2018-04-14T01:13:31.225Z,1009.15
2018-04-14T01:14:31.242Z,1009.16
2018-04-14T01:15:31.257Z,1009.11
2018-04-14T01:16:31.279Z,1009.14
2018-04-14T01:17:31.289Z,1009.18
2018-04-14T01:18:31.315Z,1009.15
2018-04-14T01:19:31.332Z,1009.18
2018-04-14T01:20:31.343Z,1009.17
2018-04-14T01:21:31.350Z,1009.23
2018-04-14T01:22:31.368Z,1009.22
2018-04-14T01:23:31.382Z,1009.21
2018-04-14T01:24:31.396Z,1009.24
2018-04-14T01:25:31.413Z,1009.20
2018-04-14T01:26:31.432Z,1009.21
2018-04-14T01:27:31.446Z,1009.17
2018-04-14T01:28:31.468Z,1009.20
2018-04-14T01:29:31.478Z,1009.21
2018-04-14T01:30:31.491Z,1009.26
2018-04-14T01:31:31.509Z,1009.22
2018-04-14T01:32:31.533Z,1009.25
2018-04-14T01:33:31.535Z,1009.23
2018-04-14T01:34:31.562Z,1009.22
2018-04-14T01:35:31.569Z,1009.21
2018-04-14T01:36:31.590Z,1009.19
2018-04-14T01:37:31.596Z,1009.21
2018-04-14T01:38:31.625Z,1009.20
2018-04-14T01:39:31.660Z,1009.17
2018-04-14T01:40:31.644Z,1009.17
2018-04-14T01:41:31.657Z,1009.18
2018-04-14T01:42:31.672Z,1009.19
2018-04-14T01:43:31.695Z,1009.18
2018-04-14T01:44:31.716Z,1009.20
2018-04-14T01:45:31.746Z,1009.21
2018-04-14T01:46:31.734Z,1009.21
2018-04-14T01:47:31.756Z,1009.18
2018-04-14T01:48:31.762Z,1009.16
2018-04-14T01:49:31.783Z,1009.22
2018-04-14T01:50:31.793Z,1009.19
2018-04-14T01:51:31.810Z,1009.25
2018-04-14T01:52:31.826Z,1009.27
2018-04-14T01:53:31.839Z,1009.30
2018-04-14T01:54:31.858Z,1009.27
2018-04-14T01:55:31.871Z,1009.31
2018-04-14T01:56:31.889Z,1009.31
2018-04-14T01:57:31.904Z,1009.29
2018-04-14T01:58:31.915Z,1009.31
2018-04-14T01:59:31.934Z,1009.32
2018-04-14T02:00:31.948Z,1009.27
2018-04-14T02:01:31.961Z,1009.31
2018-04-14T02:02:31.976Z,1009.28
2018-04-14T02:03:31.992Z,1009.31
2018-04-14T02:04:32.014Z,1009.30
2018-04-14T02:05:32.026Z,1009.26
2018-04-14T02:06:32.037Z,1009.33
2018-04-14T02:07:32.076Z,1009.36
2018-04-14T02:08:32.068Z,1009.33
2018-04-14T02:09:32.085Z,1009.32
2018-04-14T02:10:32.098Z,1009.29
2018-04-14T02:11:32.117Z,1009.26
2018-04-14T02:12:32.129Z,1009.25
2018-04-14T02:13:32.142Z,1009.22
2018-04-14T02:14:32.162Z,1009.17
2018-04-14T02:15:32.176Z,1009.15
2018-04-14T02:16:32.194Z,1009.14
2018-04-14T02:17:32.234Z,1009.14
2018-04-14T02:18:32.219Z,1009.20
2018-04-14T02:19:32.250Z,1009.17
2018-04-14T02:20:32.250Z,1009.13
2018-04-14T02:21:32.265Z,1009.16
2018-04-14T02:22:32.290Z,1009.14
2018-04-14T02:23:32.396Z,1009.18
2018-04-14T02:24:32.337Z,1009.16
2018-04-14T02:25:32.333Z,1009.18
2018-04-14T02:26:32.343Z,1009.16
2018-04-14T02:27:32.356Z,1009.18
2018-04-14T02:28:32.373Z,1009.18
2018-04-14T02:29:32.399Z,1009.15
2018-04-14T02:30:32.402Z,1009.12
2018-04-14T02:31:32.426Z,1009.17
2018-04-14T02:32:32.433Z,1009.17
2018-04-14T02:33:32.448Z,1009.16
2018-04-14T02:34:32.464Z,1009.18
2018-04-14T02:35:32.481Z,1009.19
2018-04-14T02:36:32.496Z,1009.17
2018-04-14T02:37:32.510Z,1009.22
2018-04-14T02:38:32.530Z,1009.22
2018-04-14T02:39:32.538Z,1009.17
2018-04-14T02:40:32.553Z,1009.17
2018-04-14T02:41:32.591Z,1009.17
2018-04-14T02:42:32.583Z,1009.14
2018-04-14T02:43:32.602Z,1009.13
2018-04-14T02:44:32.610Z,1009.17
2018-04-14T02:45:32.622Z,1009.20
2018-04-14T02:46:32.638Z,1009.20
2018-04-14T02:47:32.653Z,1009.18
2018-04-14T02:48:32.669Z,1009.21
2018-04-14T02:49:32.688Z,1009.15
2018-04-14T02:50:32.697Z,1009.17
2018-04-14T02:51:32.716Z,1009.15
2018-04-14T02:52:32.729Z,1009.21
2018-04-14T02:53:32.744Z,1009.19
2018-04-14T02:54:32.759Z,1009.22
2018-04-14T02:55:32.777Z,1009.20
2018-04-14T02:56:32.788Z,1009.22
2018-04-14T02:57:32.804Z,1009.20
2018-04-14T02:58:32.818Z,1009.18
2018-04-14T02:59:32.835Z,1009.21
2018-04-14T03:00:32.850Z,1009.23
2018-04-14T03:01:32.865Z,1009.27
2018-04-14T03:02:32.880Z,1009.26
2018-04-14T03:03:32.896Z,1009.27
2018-04-14T03:04:32.910Z,1009.27
2018-04-14T03:05:32.926Z,1009.31
2018-04-14T03:06:32.940Z,1009.23
2018-04-14T03:07:32.964Z,1009.22
2018-04-14T03:08:32.972Z,1009.22
2018-04-14T03:09:32.986Z,1009.20
2018-04-14T03:10:33.002Z,1009.26
2018-04-14T03:11:33.016Z,1009.22
2018-04-14T03:12:33.032Z,1009.22
2018-04-14T03:13:33.047Z,1009.28
2018-04-14T03:14:33.064Z,1009.28
2018-04-14T03:15:33.080Z,1009.31
2018-04-14T03:16:33.093Z,1009.25
2018-04-14T03:17:33.107Z,1009.24
2018-04-14T03:18:33.124Z,1009.23
2018-04-14T03:19:33.147Z,1009.26
2018-04-14T03:20:33.152Z,1009.29
2018-04-14T03:21:33.168Z,1009.30
2018-04-14T03:22:33.184Z,1009.30
2018-04-14T03:23:33.199Z,1009.30
2018-04-14T03:24:33.225Z,1009.31
2018-04-14T03:25:33.237Z,1009.33
2018-04-14T03:26:33.256Z,1009.32
2018-04-14T03:27:33.260Z,1009.36
2018-04-14T03:28:33.278Z,1009.36
2018-04-14T03:29:33.289Z,1009.36
2018-04-14T03:30:33.306Z,1009.38
2018-04-14T03:31:33.322Z,1009.36
2018-04-14T03:32:33.342Z,1009.36
2018-04-14T03:33:33.356Z,1009.38
2018-04-14T03:34:33.368Z,1009.36
2018-04-14T03:35:33.379Z,1009.35
2018-04-14T03:36:33.398Z,1009.35
2018-04-14T03:37:33.409Z,1009.37
2018-04-14T03:38:33.426Z,1009.39
2018-04-14T03:39:33.442Z,1009.35
2018-04-14T03:40:33.458Z,1009.40
2018-04-14T03:41:33.471Z,1009.37
2018-04-14T03:42:33.560Z,1009.41
2018-04-14T03:43:33.501Z,1009.42
2018-04-14T03:44:33.516Z,1009.38
2018-04-14T03:45:33.530Z,1009.40
2018-04-14T03:46:33.547Z,1009.39
2018-04-14T03:47:33.563Z,1009.40
2018-04-14T03:48:33.579Z,1009.43
2018-04-14T03:49:33.592Z,1009.41
2018-04-14T03:50:33.608Z,1009.42
2018-04-14T03:51:33.625Z,1009.43
2018-04-14T03:52:33.644Z,1009.43
2018-04-14T03:53:33.653Z,1009.47
2018-04-14T03:54:33.668Z,1009.38
2018-04-14T03:55:33.683Z,1009.48
2018-04-14T03:56:33.698Z,1009.50
2018-04-14T03:57:33.725Z,1009.53
2018-04-14T03:58:33.728Z,1009.54
2018-04-14T03:59:33.744Z,1009.58
2018-04-14T04:00:33.765Z,1009.62
2018-04-14T04:01:33.775Z,1009.59
2018-04-14T04:02:33.790Z,1009.65
2018-04-14T04:03:33.805Z,1009.67
2018-04-14T04:04:33.821Z,1009.69
2018-04-14T04:05:33.837Z,1009.65
2018-04-14T04:06:33.856Z,1009.69
2018-04-14T04:07:33.868Z,1009.74
2018-04-14T04:08:33.882Z,1009.73
2018-04-14T04:09:33.905Z,1009.74
2018-04-14T04:10:33.912Z,1009.75
2018-04-14T04:11:33.929Z,1009.78
2018-04-14T04:12:33.950Z,1009.83
2018-04-14T04:13:33.958Z,1009.81
2018-04-14T04:14:33.973Z,1009.82
2018-04-14T04:15:33.993Z,1009.82
2018-04-14T04:16:34.005Z,1009.88
2018-04-14T04:17:34.020Z,1009.86
2018-04-14T04:18:34.039Z,1009.88
2018-04-14T04:19:34.052Z,1009.83
2018-04-14T04:20:34.072Z,1009.83
2018-04-14T04:21:34.086Z,1009.87
2018-04-14T04:22:34.098Z,1009.92
2018-04-14T04:23:34.113Z,1009.89
2018-04-14T04:24:34.128Z,1009.93
2018-04-14T04:25:34.143Z,1009.93
2018-04-14T04:26:34.157Z,1009.95
2018-04-14T04:27:34.174Z,1009.92
2018-04-14T04:28:34.188Z,1009.96
2018-04-14T04:29:34.210Z,1009.99
2018-04-14T04:30:34.222Z,1010.02
2018-04-14T04:31:34.237Z,1010.04
2018-04-14T04:32:34.253Z,1010.03
2018-04-14T04:33:34.264Z,1010.04
2018-04-14T04:34:34.280Z,1010.03
2018-04-14T04:35:34.298Z,1010.06
2018-04-14T04:36:34.311Z,1010.11
2018-04-14T04:37:34.326Z,1010.12
2018-04-14T04:38:34.342Z,1010.10
2018-04-14T04:39:34.355Z,1010.15
2018-04-14T04:40:34.377Z,1010.19
2018-04-14T04:41:34.384Z,1010.20
2018-04-14T04:42:34.400Z,1010.26
2018-04-14T04:43:34.424Z,1010.30
2018-04-14T04:44:34.430Z,1010.28
2018-04-14T04:45:34.548Z,1010.30
2018-04-14T04:46:34.460Z,1010.31
2018-04-14T04:47:34.475Z,1010.32
2018-04-14T04:48:34.492Z,1010.27
2018-04-14T04:49:34.516Z,1010.25
2018-04-14T04:50:34.521Z,1010.24
2018-04-14T04:51:34.572Z,1010.31
2018-04-14T04:52:34.554Z,1010.31
2018-04-14T04:53:34.567Z,1010.33
2018-04-14T04:54:34.581Z,1010.33
2018-04-14T04:55:34.596Z,1010.39
2018-04-14T04:56:34.614Z,1010.39
2018-04-14T04:57:34.626Z,1010.40
2018-04-14T04:58:34.685Z,1010.40
2018-04-14T04:59:34.657Z,1010.44
2018-04-14T05:00:34.671Z,1010.46
2018-04-14T05:01:34.685Z,1010.49
2018-04-14T05:02:34.702Z,1010.48
2018-04-14T05:03:34.726Z,1010.49
2018-04-14T05:04:34.731Z,1010.49
2018-04-14T05:05:34.748Z,1010.53
2018-04-14T05:06:34.762Z,1010.56
2018-04-14T05:07:34.776Z,1010.52
2018-04-14T05:08:34.792Z,1010.63
2018-04-14T05:09:34.815Z,1010.69
2018-04-14T05:10:34.820Z,1010.69
2018-04-14T05:11:34.836Z,1010.69
2018-04-14T05:12:34.858Z,1010.71
2018-04-14T05:13:34.866Z,1010.68
2018-04-14T05:14:34.892Z,1010.70
2018-04-14T05:15:34.900Z,1010.71
2018-04-14T05:16:34.911Z,1010.77
2018-04-14T05:17:34.926Z,1010.73
2018-04-14T05:18:34.944Z,1010.76
2018-04-14T05:19:34.962Z,1010.77
2018-04-14T05:20:34.979Z,1010.83
2018-04-14T05:21:34.985Z,1010.80
2018-04-14T05:22:35.001Z,1010.82
2018-04-14T05:23:35.065Z,1010.84
2018-04-14T05:24:35.032Z,1010.85
2018-04-14T05:25:35.055Z,1010.91
2018-04-14T05:26:35.062Z,1010.91
2018-04-14T05:27:35.077Z,1010.95
2018-04-14T05:28:35.100Z,1010.90
2018-04-14T05:29:35.113Z,1010.96
2018-04-14T05:30:35.122Z,1010.94
2018-04-14T05:31:35.144Z,1010.97
2018-04-14T05:32:35.150Z,1010.99
2018-04-14T05:33:35.166Z,1010.98
2018-04-14T05:34:35.211Z,1010.99
2018-04-14T05:35:35.196Z,1010.99
2018-04-14T05:36:35.222Z,1011.02
2018-04-14T05:37:35.246Z,1011.00
2018-04-14T05:38:35.240Z,1010.97
2018-04-14T05:39:35.268Z,1010.98
2018-04-14T05:40:35.271Z,1011.01
2018-04-14T05:41:35.286Z,1011.00
2018-04-14T05:42:35.300Z,1011.05
2018-04-14T05:43:35.319Z,1011.03
2018-04-14T05:44:35.339Z,1011.04
2018-04-14T05:45:35.347Z,1011.05
2018-04-14T05:46:35.361Z,1011.05
2018-04-14T05:47:35.376Z,1011.13
2018-04-14T05:48:35.391Z,1011.07
2018-04-14T05:49:35.455Z,1011.08
2018-04-14T05:50:35.420Z,1011.02
2018-04-14T05:51:35.436Z,1011.02
2018-04-14T05:52:35.755Z,1011.05
2018-04-14T05:53:35.466Z,1011.06
2018-04-14T05:54:35.480Z,1011.12
2018-04-14T05:55:35.496Z,1011.13
2018-04-14T05:56:35.510Z,1011.16
2018-04-14T05:57:35.530Z,1011.17
2018-04-14T05:58:35.555Z,1011.18
2018-04-14T05:59:35.554Z,1011.20
2018-04-14T06:00:35.570Z,1011.15
2018-04-14T06:01:35.591Z,1011.26
2018-04-14T06:02:35.600Z,1011.19
2018-04-14T06:03:35.622Z,1011.14
2018-04-14T06:04:35.633Z,1011.18
2018-04-14T06:05:35.648Z,1011.14
2018-04-14T06:06:35.661Z,1011.18
2018-04-14T06:07:35.781Z,1011.17
2018-04-14T06:08:35.708Z,1011.23
2018-04-14T06:09:35.710Z,1011.18
2018-04-14T06:10:35.720Z,1011.17
2018-04-14T06:11:35.735Z,1011.20
2018-04-14T06:12:35.751Z,1011.17
2018-04-14T06:13:35.768Z,1011.21
2018-04-14T06:14:35.795Z,1011.23
2018-04-14T06:15:35.793Z,1011.20
2018-04-14T06:16:35.809Z,1011.22
2018-04-14T06:17:35.823Z,1011.30
2018-04-14T06:18:35.840Z,1011.28
2018-04-14T06:19:35.862Z,1011.31
2018-04-14T06:20:35.870Z,1011.34
2018-04-14T06:21:35.884Z,1011.32
2018-04-14T06:22:35.900Z,1011.37
2018-04-14T06:23:35.915Z,1011.38
2018-04-14T06:24:35.936Z,1011.34
2018-04-14T06:25:35.944Z,1011.41
2018-04-14T06:26:35.959Z,1011.43
2018-04-14T06:27:36.056Z,1011.42
2018-04-14T06:28:35.990Z,1011.47
2018-04-14T06:29:36.005Z,1011.46
2018-04-14T06:30:36.018Z,1011.52
2018-04-14T06:31:36.036Z,1011.50
2018-04-14T06:32:36.059Z,1011.52
2018-04-14T06:33:36.068Z,1011.51
2018-04-14T06:34:36.080Z,1011.50
2018-04-14T06:35:36.100Z,1011.52
2018-04-14T06:36:36.112Z,1011.53
2018-04-14T06:37:36.122Z,1011.58
2018-04-14T06:38:36.138Z,1011.57
2018-04-14T06:39:36.153Z,1011.57
2018-04-14T06:40:36.169Z,1011.57
2018-04-14T06:41:36.183Z,1011.56
2018-04-14T06:42:36.203Z,1011.50
2018-04-14T06:43:36.217Z,1011.54
2018-04-14T06:44:36.233Z,1011.53
2018-04-14T06:45:36.244Z,1011.58
2018-04-14T06:46:36.263Z,1011.57
2018-04-14T06:47:36.425Z,1011.57
2018-04-14T06:48:36.288Z,1011.58
2018-04-14T06:49:36.308Z,1011.56
2018-04-14T06:50:36.333Z,1011.65
2018-04-14T06:51:36.338Z,1011.58
2018-04-14T06:52:36.363Z,1011.56
2018-04-14T06:53:36.369Z,1011.60
2018-04-14T06:54:36.384Z,1011.61
2018-04-14T06:55:36.399Z,1011.64
2018-04-14T06:56:36.411Z,1011.63
2018-04-14T06:57:36.526Z,1011.64
2018-04-14T06:58:36.443Z,1011.66
2018-04-14T06:59:36.459Z,1011.69
2018-04-14T07:00:36.474Z,1011.67
2018-04-14T07:01:36.794Z,1011.74
2018-04-14T07:02:36.504Z,1011.81
2018-04-14T07:03:36.526Z,1011.80
2018-04-14T07:04:36.552Z,1011.79
2018-04-14T07:05:36.552Z,1011.83
2018-04-14T07:06:36.564Z,1011.85
2018-04-14T07:07:36.606Z,1011.89
2018-04-14T07:08:36.601Z,1011.85
2018-04-14T07:09:36.610Z,1011.86
2018-04-14T07:10:36.629Z,1011.81
2018-04-14T07:11:36.645Z,1011.82
2018-04-14T07:12:36.658Z,1011.83
2018-04-14T07:13:36.680Z,1011.85
2018-04-14T07:14:36.701Z,1011.85
2018-04-14T07:15:36.742Z,1011.86
2018-04-14T07:16:36.742Z,1011.89
2018-04-14T07:17:36.735Z,1011.86
2018-04-14T07:18:37.170Z,1011.93
2018-04-14T07:19:36.862Z,1011.92
2018-04-14T07:20:36.881Z,1011.96
2018-04-14T07:21:36.888Z,1012.00
2018-04-14T07:22:36.857Z,1011.99
2018-04-14T07:23:36.901Z,1011.98
2018-04-14T07:24:36.918Z,1012.02
2018-04-14T07:25:37.132Z,1012.01
2018-04-14T07:26:36.945Z,1012.02
2018-04-14T07:27:36.889Z,1012.01
2018-04-14T07:28:36.904Z,1011.95
2018-04-14T07:29:36.924Z,1012.01
2018-04-14T07:30:36.936Z,1011.98
2018-04-14T07:31:36.953Z,1012.02
2018-04-14T07:32:36.973Z,1012.02
2018-04-14T07:33:36.994Z,1012.06
2018-04-14T07:34:36.997Z,1012.12
2018-04-14T07:35:37.012Z,1012.18
2018-04-14T07:36:37.027Z,1012.10
2018-04-14T07:37:37.098Z,1012.17
2018-04-14T07:38:37.058Z,1012.16
2018-04-14T07:39:37.073Z,1012.17
2018-04-14T07:40:37.098Z,1012.14
2018-04-14T07:41:37.108Z,1012.15
2018-04-14T07:42:37.125Z,1012.15
2018-04-14T07:43:37.137Z,1012.10
2018-04-14T07:44:37.151Z,1012.10
2018-04-14T07:45:37.168Z,1012.17
2018-04-14T07:46:37.258Z,1012.18
2018-04-14T07:47:37.281Z,1012.20
2018-04-14T07:48:37.419Z,1012.23
2018-04-14T07:49:37.229Z,1012.21
2018-04-14T07:50:37.243Z,1012.20
2018-04-14T07:51:37.306Z,1012.23
2018-04-14T07:52:37.278Z,1012.24
2018-04-14T07:53:37.291Z,1012.25
2018-04-14T07:54:37.306Z,1012.25
2018-04-14T07:55:37.324Z,1012.26
2018-04-14T07:56:37.382Z,1012.25
2018-04-14T07:57:37.353Z,1012.30
2018-04-14T07:58:37.368Z,1012.30
2018-04-14T07:59:37.386Z,1012.32
2018-04-14T08:00:37.400Z,1012.35
2018-04-14T08:01:37.469Z,1012.38
2018-04-14T08:02:37.437Z,1012.34
2018-04-14T08:03:37.448Z,1012.35
2018-04-14T08:04:37.465Z,1012.34
2018-04-14T08:05:37.480Z,1012.35
2018-04-14T08:06:37.500Z,1012.42
2018-04-14T08:07:37.509Z,1012.48
2018-04-14T08:08:37.524Z,1012.46
2018-04-14T08:09:37.537Z,1012.50
2018-04-14T08:10:37.560Z,1012.47
2018-04-14T08:11:37.586Z,1012.49
2018-04-14T08:12:37.593Z,1012.48
2018-04-14T08:13:37.616Z,1012.54
2018-04-14T08:14:37.618Z,1012.53
2018-04-14T08:15:37.634Z,1012.49
2018-04-14T08:16:37.662Z,1012.53
2018-04-14T08:17:37.664Z,1012.50
2018-04-14T08:18:37.681Z,1012.54
2018-04-14T08:19:37.697Z,1012.51
2018-04-14T08:20:37.723Z,1012.52
2018-04-14T08:21:37.955Z,1012.52
2018-04-14T08:22:37.743Z,1012.55
2018-04-14T08:23:37.761Z,1012.62
2018-04-14T08:24:37.812Z,1012.63
2018-04-14T08:25:37.790Z,1012.58
2018-04-14T08:26:37.807Z,1012.62
2018-04-14T08:27:37.843Z,1012.61
2018-04-14T08:28:37.931Z,1012.62
2018-04-14T08:29:37.853Z,1012.61
2018-04-14T08:30:37.871Z,1012.64
2018-04-14T08:31:37.886Z,1012.68
2018-04-14T08:32:37.900Z,1012.72
2018-04-14T08:33:37.926Z,1012.74
2018-04-14T08:34:37.934Z,1012.75
2018-04-14T08:35:37.947Z,1012.74
2018-04-14T08:36:37.981Z,1012.77
2018-04-14T08:37:37.980Z,1012.75
2018-04-14T08:38:37.994Z,1012.73
2018-04-14T08:39:38.016Z,1012.76
2018-04-14T08:40:38.030Z,1012.71
2018-04-14T08:41:38.067Z,1012.76
2018-04-14T08:42:38.061Z,1012.84
2018-04-14T08:43:38.074Z,1012.81
2018-04-14T08:44:38.095Z,1012.82
2018-04-14T08:45:38.107Z,1012.84
2018-04-14T08:46:38.121Z,1012.79
2018-04-14T08:47:38.157Z,1012.82
2018-04-14T08:48:38.154Z,1012.80
2018-04-14T08:49:38.169Z,1012.78
2018-04-14T08:50:38.183Z,1012.76
2018-04-14T08:51:38.202Z,1012.84
2018-04-14T08:52:38.257Z,1012.80
2018-04-14T08:53:38.235Z,1012.79
2018-04-14T08:54:38.258Z,1012.78
2018-04-14T08:55:38.328Z,1012.78
2018-04-14T08:56:38.331Z,1012.75
2018-04-14T08:57:38.295Z,1012.77
2018-04-14T08:58:38.360Z,1012.75
2018-04-14T08:59:38.324Z,1012.79
2018-04-14T09:00:38.345Z,1012.79
2018-04-14T09:01:38.373Z,1012.79
2018-04-14T09:02:38.376Z,1012.84
2018-04-14T09:03:38.388Z,1012.83
2018-04-14T09:04:38.423Z,1012.83
2018-04-14T09:05:38.426Z,1012.88
2018-04-14T09:06:38.437Z,1012.87
2018-04-14T09:07:38.451Z,1012.93
2018-04-14T09:08:38.490Z,1012.93
2018-04-14T09:09:38.482Z,1012.96
2018-04-14T09:10:38.501Z,1012.91
2018-04-14T09:11:38.524Z,1012.96
2018-04-14T09:12:38.535Z,1012.97
2018-04-14T09:13:38.547Z,1012.99
2018-04-14T09:14:38.564Z,1012.99
2018-04-14T09:15:38.584Z,1013.02
2018-04-14T09:16:38.613Z,1013.00
2018-04-14T09:17:38.615Z,1012.98
2018-04-14T09:18:38.629Z,1012.99
2018-04-14T09:19:38.647Z,1013.01
2018-04-14T09:20:38.672Z,1012.99
2018-04-14T09:21:38.677Z,1013.05
2018-04-14T09:22:38.697Z,1012.98
2018-04-14T09:23:38.714Z,1013.00
2018-04-14T09:24:38.723Z,1012.98
2018-04-14T09:25:38.738Z,1012.98
2018-04-14T09:26:38.757Z,1012.98
2018-04-14T09:27:38.791Z,1013.00
2018-04-14T09:28:38.797Z,1012.98
2018-04-14T09:29:38.808Z,1013.01
2018-04-14T09:30:38.823Z,1013.01
2018-04-14T09:31:38.839Z,1013.02
2018-04-14T09:32:38.856Z,1013.02
2018-04-14T09:33:38.867Z,1013.04
2018-04-14T09:34:38.884Z,1013.02
2018-04-14T09:35:38.914Z,1013.05
2018-04-14T09:36:38.919Z,1013.07
2018-04-14T09:37:38.932Z,1013.09
2018-04-14T09:38:38.949Z,1013.13
2018-04-14T09:39:38.969Z,1013.09
2018-04-14T09:40:38.985Z,1013.09
2018-04-14T09:41:39.004Z,1013.08
2018-04-14T09:42:39.012Z,1013.07
2018-04-14T09:43:39.031Z,1013.04
2018-04-14T09:44:39.057Z,1013.07
2018-04-14T09:45:39.065Z,1013.11
2018-04-14T09:46:39.079Z,1013.10
2018-04-14T09:47:39.096Z,1013.12
2018-04-14T09:48:39.113Z,1013.05
2018-04-14T09:49:39.129Z,1013.04
2018-04-14T09:50:39.155Z,1013.06
2018-04-14T09:51:39.163Z,1013.06
2018-04-14T09:52:39.184Z,1013.02
2018-04-14T09:53:39.200Z,1013.11
2018-04-14T09:54:39.215Z,1013.08
2018-04-14T09:55:39.229Z,1013.08
2018-04-14T09:56:39.246Z,1013.13
2018-04-14T09:57:39.318Z,1013.10
2018-04-14T09:58:39.280Z,1013.12
2018-04-14T09:59:39.311Z,1013.15
2018-04-14T10:00:39.308Z,1013.19
2018-04-14T10:01:39.360Z,1013.13
2018-04-14T10:02:39.350Z,1013.13
2018-04-14T10:03:39.355Z,1013.16
2018-04-14T10:04:39.383Z,1013.19
2018-04-14T10:05:39.396Z,1013.24
2018-04-14T10:06:39.412Z,1013.23
2018-04-14T10:07:39.441Z,1013.30
2018-04-14T10:08:39.437Z,1013.25
2018-04-14T10:09:39.470Z,1013.26
2018-04-14T10:10:39.486Z,1013.18
2018-04-14T10:11:39.500Z,1013.17
2018-04-14T10:12:39.505Z,1013.17
2018-04-14T10:13:39.538Z,1013.19
2018-04-14T10:14:39.545Z,1013.16
2018-04-14T10:15:39.585Z,1013.16
2018-04-14T10:16:39.569Z,1013.20
2018-04-14T10:17:39.586Z,1013.25
2018-04-14T10:18:39.606Z,1013.22
2018-04-14T10:19:39.619Z,1013.19
2018-04-14T10:20:39.633Z,1013.15
2018-04-14T10:21:39.652Z,1013.19
2018-04-14T10:22:39.675Z,1013.20
2018-04-14T10:23:39.681Z,1013.18
2018-04-14T10:24:39.698Z,1013.17
2018-04-14T10:25:39.719Z,1013.24
2018-04-14T10:26:39.729Z,1013.16
2018-04-14T10:27:39.745Z,1013.21
2018-04-14T10:28:39.766Z,1013.18
2018-04-14T10:29:39.782Z,1013.18
2018-04-14T10:30:39.793Z,1013.21
2018-04-14T10:31:39.818Z,1013.16
2018-04-14T10:32:39.832Z,1013.17
2018-04-14T10:33:39.847Z,1013.13
2018-04-14T10:34:39.863Z,1013.12
2018-04-14T10:35:39.874Z,1013.19
2018-04-14T10:36:39.893Z,1013.16
2018-04-14T10:37:39.932Z,1013.17
2018-04-14T10:38:39.925Z,1013.19
2018-04-14T10:39:39.941Z,1013.17
2018-04-14T10:40:39.962Z,1013.19
2018-04-14T10:41:39.976Z,1013.18
2018-04-14T10:42:39.989Z,1013.24
2018-04-14T10:43:40.010Z,1013.23
2018-04-14T10:44:40.054Z,1013.22
2018-04-14T10:45:40.039Z,1013.21
2018-04-14T10:46:40.057Z,1013.20
2018-04-14T10:47:40.085Z,1013.16
2018-04-14T10:48:40.094Z,1013.21
2018-04-14T10:49:40.109Z,1013.25
2018-04-14T10:50:40.124Z,1013.23
2018-04-14T10:51:40.213Z,1013.24
2018-04-14T10:52:40.158Z,1013.29
2018-04-14T10:53:40.177Z,1013.29
2018-04-14T10:54:40.200Z,1013.23
2018-04-14T10:55:40.217Z,1013.28
2018-04-14T10:56:40.224Z,1013.25
2018-04-14T10:57:40.245Z,1013.28
2018-04-14T10:58:40.257Z,1013.31
2018-04-14T10:59:40.275Z,1013.28
2018-04-14T11:00:40.294Z,1013.26
2018-04-14T11:01:40.317Z,1013.24
2018-04-14T11:02:40.325Z,1013.21
2018-04-14T11:03:40.342Z,1013.21
2018-04-14T11:04:40.355Z,1013.20
2018-04-14T11:05:40.374Z,1013.17
2018-04-14T11:06:40.399Z,1013.19
2018-04-14T11:07:40.407Z,1013.25
2018-04-14T11:08:40.428Z,1013.23
2018-04-14T11:09:40.441Z,1013.20
2018-04-14T11:10:40.454Z,1013.24
2018-04-14T11:11:40.474Z,1013.26
2018-04-14T11:12:40.495Z,1013.23
2018-04-14T11:13:40.504Z,1013.23
2018-04-14T11:14:40.526Z,1013.19
2018-04-14T11:15:40.536Z,1013.24
2018-04-14T11:16:40.548Z,1013.29
2018-04-14T11:17:40.564Z,1013.29
2018-04-14T11:18:40.581Z,1013.25
2018-04-14T11:19:40.599Z,1013.34
2018-04-14T11:20:40.615Z,1013.31
2018-04-14T11:21:40.634Z,1013.21
2018-04-14T11:22:40.669Z,1013.22
2018-04-14T11:23:40.665Z,1013.21
2018-04-14T11:24:40.682Z,1013.21
2018-04-14T11:25:40.697Z,1013.33
2018-04-14T11:26:40.715Z,1013.24
2018-04-14T11:27:40.735Z,1013.19
2018-04-14T11:28:40.748Z,1013.27
2018-04-14T11:29:40.769Z,1013.24
2018-04-14T11:30:40.783Z,1013.20
2018-04-14T11:31:40.800Z,1013.26
2018-04-14T11:32:40.815Z,1013.30
2018-04-14T11:33:40.833Z,1013.28
2018-04-14T11:34:40.851Z,1013.22
2018-04-14T11:35:40.868Z,1013.14
2018-04-14T11:36:40.884Z,1013.25
2018-04-14T11:37:40.901Z,1013.27
2018-04-14T11:38:40.921Z,1013.26
2018-04-14T11:39:40.942Z,1013.38
2018-04-14T11:40:40.953Z,1013.32
2018-04-14T11:41:40.970Z,1013.33
2018-04-14T11:42:40.991Z,1013.33
2018-04-14T11:43:41.006Z,1013.40
2018-04-14T11:44:41.027Z,1013.31
2018-04-14T11:45:41.040Z,1013.37
2018-04-14T11:46:41.066Z,1013.39
2018-04-14T11:47:41.086Z,1013.38
2018-04-14T11:48:41.122Z,1013.39
2018-04-14T11:49:41.119Z,1013.37
2018-04-14T11:50:41.128Z,1013.38
2018-04-14T11:51:41.154Z,1013.37
2018-04-14T11:52:41.163Z,1013.29
2018-04-14T11:53:41.176Z,1013.30
2018-04-14T11:54:41.193Z,1013.33
2018-04-14T11:55:41.216Z,1013.35
2018-04-14T11:56:41.228Z,1013.35
2018-04-14T11:57:41.246Z,1013.44
2018-04-14T11:58:41.265Z,1013.42
2018-04-14T11:59:41.368Z,1013.34
2018-04-14T12:00:41.299Z,1013.31
2018-04-14T12:01:41.316Z,1013.33
2018-04-14T12:02:41.334Z,1013.39
2018-04-14T12:03:41.389Z,1013.37
2018-04-14T12:04:41.369Z,1013.43
2018-04-14T12:05:41.389Z,1013.44